Time;durP1;ratioP1;P1;durP2;ratioP2;P2;SDS_P1;SDS_P2;PMS_P1;PMS_P2;Temp;Humidity;BMP_temperature;BMP_pressure;BME280_temperature;BME280_humidity;BME280_pressure;Samples;Min_cycle;Max_cycle;Signal;HPM_P1;HPM_P2
2023/04/30 00:01:24;;;;;;;;;;;;;;;7.10;71.07;100609.72;4998233;28;19976;-87
2023/04/30 00:03:51;;;;;;;;;;;;;;;7.17;70.83;100613.50;4974608;28;20298;-87
2023/04/30 00:06:17;;;;;;;;;;;;;;;7.19;70.53;100611.56;4989974;28;20370;-87
2023/04/30 00:08:42;;;;;;;;;;;;;;;7.24;70.15;100606.63;4962362;28;19918;-86
2023/04/30 00:11:08;;;;;;;;;;;;;;;7.27;69.57;100606.31;4970185;28;19933;-87
2023/04/30 00:13:33;;;;;;;;;;;;;;;7.15;69.90;100612.81;4982274;28;19945;-88
2023/04/30 00:15:58;;;;;;;;;;;;;;;7.10;69.84;100612.38;4988911;28;20044;-88
2023/04/30 00:18:24;;;;;;;;;;;;;;;7.21;69.23;100611.38;4962469;28;19922;-88
2023/04/30 00:20:52;;;;;;;;;;;;;;;7.24;68.97;100609.28;4972077;28;19928;-88
2023/04/30 00:23:18;;;;;;;;;;;;;;;7.28;68.66;100609.84;4982067;28;20171;-86
2023/04/30 00:25:44;;;;;;;;;;;;;;;7.19;68.72;100615.06;4986149;28;19922;-85
2023/04/30 00:28:09;;;;;;;;;;;;;;;7.02;69.76;100596.19;4958306;28;19941;-85
2023/04/30 00:30:35;;;;;;;;;;;;;;;7.18;68.98;100607.16;4976887;28;19962;-87
2023/04/30 00:33:00;;;;;;;;;;;;;;;7.16;68.97;100606.47;4983237;28;19926;-87
2023/04/30 00:35:26;;;;;;;;;;;;;;;7.19;68.74;100603.53;4975158;28;20011;-89
2023/04/30 00:37:51;;;;;;;;;;;;;;;7.21;68.62;100609.59;4987247;28;20382;-87
2023/04/30 00:40:18;;;;;;;;;;;;;;;7.20;68.52;100602.53;4994230;28;19922;-86
2023/04/30 00:42:54;;;;;;;;;;;;;;;7.14;68.98;100605.75;4992378;28;20032;-88
2023/04/30 00:45:40;;;;;;;;;;;;;;;7.08;68.92;100603.66;4969117;28;19922;-87
2023/04/30 00:48:06;;;;;;;;;;;;;;;7.10;68.84;100597.19;4987113;28;20023;-88
2023/04/30 00:50:31;;;;;;;;;;;;;;;7.19;68.37;100592.84;4989334;28;19930;-87
2023/04/30 00:52:58;;;;;;;;;;;;;;;7.12;68.77;100597.06;4970839;28;20342;-89
2023/04/30 00:55:23;;;;;;;;;;;;;;;7.19;68.32;100595.50;4967578;28;19926;-89
2023/04/30 00:57:49;;;;;;;;;;;;;;;7.16;68.43;100598.44;4987937;28;19927;-88
2023/04/30 01:00:14;;;;;;;;;;;;;;;7.11;68.73;100601.53;4991850;28;20012;-90
2023/04/30 01:02:40;;;;;;;;;;;;;;;6.92;68.82;100583.66;4990305;28;20350;-87
2023/04/30 01:05:06;;;;;;;;;;;;;;;7.07;68.64;100605.50;4989464;28;19917;-89
2023/04/30 01:07:34;;;;;;;;;;;;;;;6.98;68.42;100593.81;4984555;28;19929;-89
2023/04/30 01:09:59;;;;;;;;;;;;;;;6.95;68.63;100601.25;4978381;28;19922;-87
2023/04/30 01:12:43;;;;;;;;;;;;;;;7.00;68.15;100598.16;5000923;28;19944;-89
2023/04/30 01:15:21;;;;;;;;;;;;;;;7.04;67.77;100596.91;5003136;28;19941;-92
2023/04/30 01:17:49;;;;;;;;;;;;;;;7.01;67.82;100599.84;4999014;28;20665;-89
2023/04/30 01:20:15;;;;;;;;;;;;;;;6.96;67.71;100597.59;4988342;28;19985;-89
2023/04/30 01:22:40;;;;;;;;;;;;;;;6.94;67.99;100604.91;4993979;28;19952;-88
2023/04/30 01:25:30;;;;;;;;;;;;;;;6.92;67.96;100599.69;4969203;28;19926;-87
2023/04/30 01:28:05;;;;;;;;;;;;;;;6.83;68.24;100603.19;4971226;28;19926;-88
2023/04/30 01:30:31;;;;;;;;;;;;;;;6.83;68.31;100602.34;4989232;28;19929;-88
2023/04/30 01:32:56;;;;;;;;;;;;;;;6.85;67.83;100605.72;4990154;28;19922;-89
2023/04/30 01:35:22;;;;;;;;;;;;;;;6.88;67.57;100606.31;4989568;28;19985;-90
2023/04/30 01:38:00;;;;;;;;;;;;;;;6.92;67.33;100596.19;4978357;28;19921;-89
2023/04/30 01:40:32;;;;;;;;;;;;;;;6.99;67.01;100597.31;4987219;28;19943;-90
2023/04/30 01:43:27;;;;;;;;;;;;;;;7.01;66.94;100599.84;4973850;28;20073;-87
2023/04/30 01:46:12;;;;;;;;;;;;;;;6.96;67.02;100592.25;4967013;28;19936;-88
2023/04/30 01:48:49;;;;;;;;;;;;;;;7.01;67.00;100587.31;4989696;28;19926;-89
2023/04/30 01:51:25;;;;;;;;;;;;;;;6.86;67.09;100586.03;4977378;28;20022;-88
2023/04/30 01:53:51;;;;;;;;;;;;;;;6.92;66.99;100591.66;5009039;28;19941;-88
2023/04/30 01:56:36;;;;;;;;;;;;;;;6.91;67.07;100581.97;4993874;28;20004;-88
2023/04/30 01:59:05;;;;;;;;;;;;;;;6.80;67.08;100590.13;4995949;28;20379;-92
2023/04/30 02:01:31;;;;;;;;;;;;;;;6.88;67.04;100594.75;4975626;28;19921;-87
2023/04/30 02:03:56;;;;;;;;;;;;;;;6.86;67.08;100592.25;4993888;28;20075;-89
2023/04/30 02:06:30;;;;;;;;;;;;;;;6.90;66.89;100598.97;4988614;28;20036;-89
2023/04/30 02:09:01;;;;;;;;;;;;;;;6.94;66.88;100583.53;4989987;28;19929;-90
2023/04/30 02:11:26;;;;;;;;;;;;;;;6.79;67.46;100583.09;4973873;28;19988;-86
2023/04/30 02:13:52;;;;;;;;;;;;;;;6.84;67.51;100588.88;4965840;28;19930;-89
2023/04/30 02:16:17;;;;;;;;;;;;;;;6.78;67.64;100589.41;4960141;28;20406;-87
2023/04/30 02:18:43;;;;;;;;;;;;;;;6.73;68.01;100586.31;4985238;28;19940;-89
2023/04/30 02:21:09;;;;;;;;;;;;;;;6.74;68.23;100579.97;4962052;28;20008;-88
2023/04/30 02:23:34;;;;;;;;;;;;;;;6.77;67.98;100577.03;4980747;28;19929;-87
2023/04/30 02:26:00;;;;;;;;;;;;;;;6.86;67.46;100581.56;4970435;28;19921;-89
2023/04/30 02:28:25;;;;;;;;;;;;;;;6.81;67.81;100575.75;4983768;28;19929;-88
2023/04/30 02:30:51;;;;;;;;;;;;;;;6.83;67.77;100575.63;4973013;28;19922;-89
2023/04/30 02:33:16;;;;;;;;;;;;;;;6.81;67.89;100572.25;4970079;28;19922;-87
2023/04/30 02:35:42;;;;;;;;;;;;;;;6.76;68.09;100575.34;4975800;28;19922;-88
2023/04/30 02:38:08;;;;;;;;;;;;;;;6.70;68.34;100571.41;4974775;28;19994;-87
2023/04/30 02:40:34;;;;;;;;;;;;;;;6.68;68.60;100573.38;4990132;28;19922;-89
2023/04/30 02:43:00;;;;;;;;;;;;;;;6.61;68.77;100571.38;4996219;28;19976;-87
2023/04/30 02:45:27;;;;;;;;;;;;;;;6.62;68.87;100568.56;5001288;28;19965;-87
2023/04/30 02:47:54;;;;;;;;;;;;;;;6.58;69.17;100566.28;4985736;28;19914;-87
2023/04/30 02:50:21;;;;;;;;;;;;;;;6.72;68.65;100563.25;4998658;28;19918;-90
2023/04/30 02:52:48;;;;;;;;;;;;;;;6.72;68.63;100569.44;4972188;28;19922;-89
2023/04/30 02:55:16;;;;;;;;;;;;;;;6.80;68.50;100575.91;4978701;28;19929;-91
2023/04/30 02:57:45;;;;;;;;;;;;;;;6.69;68.92;100577.72;4983190;28;19922;-90
2023/04/30 03:00:11;;;;;;;;;;;;;;;6.78;68.81;100573.38;4977600;28;20012;-91
2023/04/30 03:02:37;;;;;;;;;;;;;;;6.74;69.03;100577.28;4990080;28;19971;-92
2023/04/30 03:05:03;;;;;;;;;;;;;;;6.83;68.79;100581.81;4971252;28;19925;-93
2023/04/30 03:07:29;;;;;;;;;;;;;;;6.83;68.80;100571.13;4993911;28;19936;-91
2023/04/30 03:09:55;;;;;;;;;;;;;;;6.89;68.75;100575.09;4994866;28;19969;-91
2023/04/30 03:12:23;;;;;;;;;;;;;;;6.89;68.67;100575.94;4991100;28;19944;-89
2023/04/30 03:14:53;;;;;;;;;;;;;;;6.90;68.75;100577.59;4997257;28;19910;-90
2023/04/30 03:17:23;;;;;;;;;;;;;;;6.81;69.29;100572.25;4992455;28;20395;-91
2023/04/30 03:19:49;;;;;;;;;;;;;;;6.86;68.96;100568.19;4992758;28;20008;-90
2023/04/30 03:22:18;;;;;;;;;;;;;;;6.81;69.14;100582.94;4986068;28;19961;-91
2023/04/30 03:24:45;;;;;;;;;;;;;;;6.89;68.88;100581.25;4965788;28;19953;-92
2023/04/30 03:27:13;;;;;;;;;;;;;;;6.95;68.68;100574.50;4992730;28;19972;-92
2023/04/30 03:29:39;;;;;;;;;;;;;;;7.04;68.38;100578.19;4978217;28;19980;-90
2023/04/30 03:32:08;;;;;;;;;;;;;;;7.02;68.38;100572.97;4972875;28;19957;-92
2023/04/30 03:34:34;;;;;;;;;;;;;;;7.06;68.45;100576.22;4972363;28;20008;-92
2023/04/30 03:37:03;;;;;;;;;;;;;;;7.09;68.07;100582.09;4969978;28;19923;-92
2023/04/30 03:39:33;;;;;;;;;;;;;;;7.13;67.93;100577.34;4978035;28;20344;-92
2023/04/30 03:42:02;;;;;;;;;;;;;;;7.06;68.17;100579.72;4985633;28;19929;-92
2023/04/30 03:44:28;;;;;;;;;;;;;;;7.17;67.77;100578.75;4971083;28;20060;-92
2023/04/30 03:47:00;;;;;;;;;;;;;;;7.02;68.14;100574.81;4987025;28;20246;-89
2023/04/30 03:49:28;;;;;;;;;;;;;;;7.13;67.83;100586.19;4990590;28;20308;-90
2023/04/30 03:51:55;;;;;;;;;;;;;;;7.19;67.19;100566.09;4972928;28;20326;-92
2023/04/30 03:54:26;;;;;;;;;;;;;;;7.20;67.37;100583.81;4988220;28;20339;-91
2023/04/30 03:56:59;;;;;;;;;;;;;;;7.38;66.90;100592.81;4991866;28;19945;-92
2023/04/30 03:59:24;;;;;;;;;;;;;;;7.31;67.17;100597.03;4961751;28;19934;-91
2023/04/30 04:01:50;;;;;;;;;;;;;;;7.35;66.86;100590.44;4964542;28;19925;-92
2023/04/30 04:04:16;;;;;;;;;;;;;;;7.30;66.96;100589.16;4978824;28;19958;-92
2023/04/30 04:06:41;;;;;;;;;;;;;;;7.55;66.27;100596.59;4968128;28;19956;-91
2023/04/30 04:09:06;;;;;;;;;;;;;;;7.61;65.94;100597.88;4966583;28;20045;-91
2023/04/30 04:11:33;;;;;;;;;;;;;;;7.70;65.67;100589.00;4964800;28;20004;-92
2023/04/30 04:13:59;;;;;;;;;;;;;;;7.88;65.25;100598.94;4980240;28;19929;-91
2023/04/30 04:16:25;;;;;;;;;;;;;;;7.98;64.72;100599.72;4963761;28;19922;-91
2023/04/30 04:18:52;;;;;;;;;;;;;;;7.88;64.73;100602.44;4965627;28;19933;-92
2023/04/30 04:21:18;;;;;;;;;;;;;;;8.03;64.28;100603.69;4964871;28;19944;-91
2023/04/30 04:23:44;;;;;;;;;;;;;;;8.09;64.06;100604.09;4980689;28;19957;-91
2023/04/30 04:26:11;;;;;;;;;;;;;;;7.99;64.51;100596.09;4983157;28;19926;-93
2023/04/30 04:28:37;;;;;;;;;;;;;;;8.03;64.55;100605.53;4969086;28;19968;-91
2023/04/30 04:31:11;;;;;;;;;;;;;;;8.11;64.37;100610.97;4989074;28;19933;-92
2023/04/30 04:33:38;;;;;;;;;;;;;;;8.07;64.50;100606.06;4975865;28;19996;-89
2023/04/30 04:36:08;;;;;;;;;;;;;;;8.19;64.36;100608.44;4986629;28;20351;-92
2023/04/30 04:38:35;;;;;;;;;;;;;;;8.24;63.68;100606.16;4962774;28;19972;-91
2023/04/30 04:41:03;;;;;;;;;;;;;;;8.35;63.49;100606.94;4992407;28;20016;-93
2023/04/30 04:43:30;;;;;;;;;;;;;;;8.51;63.48;100600.97;4984870;28;19941;-90
2023/04/30 04:45:56;;;;;;;;;;;;;;;9.10;61.83;100602.28;4988641;28;19926;-94
2023/04/30 04:48:29;;;;;;;;;;;;;;;10.74;57.62;100604.19;4977728;28;19996;-95
2023/04/30 04:50:55;;;;;;;;;;;;;;;11.80;53.25;100599.94;4968540;28;20008;-94
2023/04/30 04:53:25;;;;;;;;;;;;;;;12.79;51.38;100595.09;4961723;28;19957;-93
2023/04/30 04:55:53;;;;;;;;;;;;;;;13.51;49.78;100592.09;4963111;28;19929;-92
2023/04/30 04:58:26;;;;;;;;;;;;;;;13.96;48.64;100593.03;4980194;28;19972;-93
2023/04/30 05:00:53;;;;;;;;;;;;;;;14.44;47.47;100596.19;4976471;28;19930;-94
2023/04/30 05:03:21;;;;;;;;;;;;;;;14.73;47.41;100600.78;4977683;28;20364;-94
2023/04/30 05:05:52;;;;;;;;;;;;;;;14.87;47.04;100601.78;4960184;28;19925;-94
2023/04/30 05:08:18;;;;;;;;;;;;;;;15.28;46.51;100603.84;4970135;28;19926;-92
2023/04/30 05:10:45;;;;;;;;;;;;;;;15.19;46.00;100607.72;4957159;28;19925;-93
2023/04/30 05:13:16;;;;;;;;;;;;;;;15.16;45.96;100600.81;4970206;28;19922;-93
2023/04/30 05:15:48;;;;;;;;;;;;;;;15.40;45.37;100602.34;4994798;28;19970;-91
2023/04/30 05:18:15;;;;;;;;;;;;;;;15.46;45.10;100603.41;4964323;28;19971;-93
2023/04/30 05:20:44;;;;;;;;;;;;;;;15.72;44.38;100604.72;4992281;28;19921;-93
2023/04/30 05:23:09;;;;;;;;;;;;;;;15.94;43.95;100600.06;4989477;28;20008;-93
2023/04/30 05:25:37;;;;;;;;;;;;;;;15.98;43.27;100606.78;5007444;28;19925;-92
2023/04/30 05:28:04;;;;;;;;;;;;;;;16.29;42.95;100600.94;5003192;28;19926;-92
2023/04/30 05:30:31;;;;;;;;;;;;;;;16.29;42.63;100605.53;4989210;28;19933;-94
2023/04/30 05:32:56;;;;;;;;;;;;;;;16.27;42.91;100604.88;4979845;28;19928;-94
2023/04/30 05:35:22;;;;;;;;;;;;;;;16.24;42.91;100606.13;4948028;28;20025;-93
2023/04/30 05:37:48;;;;;;;;;;;;;;;16.52;42.83;100608.78;4966648;28;19933;-94
2023/04/30 05:40:15;;;;;;;;;;;;;;;16.85;41.42;100610.84;4957381;28;20076;-92
2023/04/30 05:42:55;;;;;;;;;;;;;;;17.08;41.13;100602.34;4979840;28;20013;-94
2023/04/30 05:45:21;;;;;;;;;;;;;;;17.11;40.90;100603.81;5002834;28;19925;-93
2023/04/30 05:47:47;;;;;;;;;;;;;;;17.11;40.51;100603.81;4963793;28;20004;-95
2023/04/30 05:50:13;;;;;;;;;;;;;;;17.13;40.46;100596.28;4997256;28;20030;-94
2023/04/30 05:52:38;;;;;;;;;;;;;;;17.32;39.86;100600.91;4985893;28;19933;-94
2023/04/30 05:55:05;;;;;;;;;;;;;;;17.58;40.14;100599.28;4986719;28;19949;-92
2023/04/30 05:57:32;;;;;;;;;;;;;;;17.48;39.91;100599.69;5006867;28;19918;-92
2023/04/30 05:59:58;;;;;;;;;;;;;;;17.78;39.86;100593.84;4980839;28;20011;-92
2023/04/30 06:02:23;;;;;;;;;;;;;;;17.83;39.18;100597.63;5011068;28;19918;-92
2023/04/30 06:05:02;;;;;;;;;;;;;;;18.20;38.34;100598.00;4995200;28;20000;-92
2023/04/30 06:07:29;;;;;;;;;;;;;;;18.48;38.05;100610.50;4994353;28;19922;-88
2023/04/30 06:10:13;;;;;;;;;;;;;;;18.75;37.79;100600.31;4997375;28;19922;-96
2023/04/30 06:12:50;;;;;;;;;;;;;;;19.15;37.05;100611.91;4963982;28;19957;-91
2023/04/30 06:15:39;;;;;;;;;;;;;;;19.57;36.57;100606.81;4962340;28;19944;-93
2023/04/30 06:18:41;;;;;;;;;;;;;;;19.75;36.19;100607.94;5010296;28;19928;-94
2023/04/30 06:21:14;;;;;;;;;;;;;;;19.95;35.55;100600.44;4979831;28;19968;-92
2023/04/30 06:23:46;;;;;;;;;;;;;;;20.04;34.90;100600.94;4984286;28;19922;-87
2023/04/30 06:26:14;;;;;;;;;;;;;;;19.84;34.38;100601.16;5002055;28;19984;-87
2023/04/30 06:28:44;;;;;;;;;;;;;;;19.94;34.17;100601.47;4987467;28;19941;-92
2023/04/30 06:31:19;;;;;;;;;;;;;;;20.12;33.61;100602.56;4976411;28;19917;-92
2023/04/30 06:33:55;;;;;;;;;;;;;;;20.42;32.91;100602.69;4974729;28;20378;-90
2023/04/30 06:36:23;;;;;;;;;;;;;;;20.79;32.26;100600.78;4974342;28;19929;-90
2023/04/30 06:38:52;;;;;;;;;;;;;;;21.09;31.10;100594.47;4992184;28;19928;-94
2023/04/30 06:41:20;;;;;;;;;;;;;;;21.34;30.58;100591.59;4957035;28;20016;-88
2023/04/30 06:43:45;;;;;;;;;;;;;;;21.45;30.50;100600.94;4973783;28;19937;-90
2023/04/30 06:46:13;;;;;;;;;;;;;;;21.49;28.57;100602.13;4980300;28;19976;-89
2023/04/30 06:48:39;;;;;;;;;;;;;;;21.20;27.25;100596.44;4988809;28;19925;-89
2023/04/30 06:51:04;;;;;;;;;;;;;;;21.62;25.26;100599.19;4971890;28;19972;-89
2023/04/30 06:53:30;;;;;;;;;;;;;;;21.98;24.72;100597.28;4970688;28;19926;-90
2023/04/30 06:55:55;;;;;;;;;;;;;;;22.14;22.59;100599.31;4964920;28;20327;-90
2023/04/30 06:58:21;;;;;;;;;;;;;;;21.66;21.79;100594.91;4991430;28;20012;-92
2023/04/30 07:00:46;;;;;;;;;;;;;;;21.54;21.81;100596.81;4978922;28;20063;-92
2023/04/30 07:03:17;;;;;;;;;;;;;;;21.55;21.73;100603.09;4980342;28;19995;-93
2023/04/30 07:05:52;;;;;;;;;;;;;;;21.38;21.39;100597.44;4983446;28;20080;-91
2023/04/30 07:08:42;;;;;;;;;;;;;;;21.86;21.61;100596.47;4979728;28;20378;-92
2023/04/30 07:11:12;;;;;;;;;;;;;;;22.32;21.83;100603.03;4994716;28;20375;-93
2023/04/30 07:13:40;;;;;;;;;;;;;;;22.73;21.40;100598.41;4983966;28;19918;-92
2023/04/30 07:16:07;;;;;;;;;;;;;;;22.94;21.13;100603.25;4991426;28;20351;-92
2023/04/30 07:18:38;;;;;;;;;;;;;;;23.24;20.88;100602.16;4972259;28;19922;-90
2023/04/30 07:21:41;;;;;;;;;;;;;;;23.20;20.62;100598.25;4995940;28;20033;-93
2023/04/30 07:24:38;;;;;;;;;;;;;;;23.37;21.60;100604.59;5006477;28;20672;-90
2023/04/30 07:27:06;;;;;;;;;;;;;;;23.30;20.83;100609.41;4982898;28;19936;-92
2023/04/30 07:29:33;;;;;;;;;;;;;;;23.59;20.99;100606.63;4982313;28;20401;-93
2023/04/30 07:35:01;;;;;;;;;;;;;;;24.18;21.12;100600.69;4988284;28;20021;-93
2023/04/30 07:37:28;;;;;;;;;;;;;;;23.69;21.63;100611.44;4974328;28;19958;-93
2023/04/30 07:39:56;;;;;;;;;;;;;;;23.83;21.72;100603.75;4970869;28;19933;-92
2023/04/30 07:42:22;;;;;;;;;;;;;;;23.94;21.70;100603.66;4988630;28;19944;-93
2023/04/30 07:44:48;;;;;;;;;;;;;;;24.56;21.32;100607.28;4984105;28;19972;-88
2023/04/30 07:47:13;;;;;;;;;;;;;;;24.78;20.75;100601.81;4962904;28;19953;-92
2023/04/30 07:49:38;;;;;;;;;;;;;;;24.73;21.31;100596.25;4981335;28;20055;-91
2023/04/30 07:52:04;;;;;;;;;;;;;;;25.13;21.40;100603.28;4982655;28;20371;-91
2023/04/30 07:54:35;;;;;;;;;;;;;;;24.99;21.16;100597.38;4963892;28;19922;-90
2023/04/30 07:57:04;;;;;;;;;;;;;;;24.50;21.61;100595.41;4979991;28;19917;-87
2023/04/30 07:59:39;;;;;;;;;;;;;;;24.33;21.54;100594.63;4962384;28;19973;-91
2023/04/30 08:02:07;;;;;;;;;;;;;;;24.94;21.35;100583.56;4996562;28;19909;-91
2023/04/30 08:04:33;;;;;;;;;;;;;;;24.62;21.59;100592.53;4971419;28;20383;-91
2023/04/30 08:07:03;;;;;;;;;;;;;;;24.70;21.88;100591.25;4958439;28;20005;-93
2023/04/30 08:09:28;;;;;;;;;;;;;;;25.60;21.14;100591.66;4974813;28;19958;-92
2023/04/30 08:11:53;;;;;;;;;;;;;;;25.14;21.38;100596.69;4958972;28;20068;-92
2023/04/30 08:14:20;;;;;;;;;;;;;;;25.91;20.88;100592.75;4965116;28;19926;-89
2023/04/30 08:16:48;;;;;;;;;;;;;;;25.66;20.89;100582.31;4958943;28;19970;-89
2023/04/30 08:19:16;;;;;;;;;;;;;;;25.69;21.13;100596.41;4971833;28;20332;-90
2023/04/30 08:21:46;;;;;;;;;;;;;;;25.99;20.41;100591.41;4964839;28;20339;-93
2023/04/30 08:24:11;;;;;;;;;;;;;;;26.43;20.30;100582.84;4956067;28;20009;-91
2023/04/30 08:26:38;;;;;;;;;;;;;;;27.09;19.81;100594.16;4956406;28;19926;-92
2023/04/30 08:29:03;;;;;;;;;;;;;;;27.36;19.41;100574.59;4978240;28;20391;-94
2023/04/30 08:31:29;;;;;;;;;;;;;;;27.43;19.05;100573.53;4972345;28;19922;-90
2023/04/30 08:33:56;;;;;;;;;;;;;;;28.19;18.25;100572.63;4939298;28;19922;-90
2023/04/30 08:36:25;;;;;;;;;;;;;;;27.73;19.42;100576.28;4973149;28;19961;-90
2023/04/30 08:38:50;;;;;;;;;;;;;;;27.31;19.18;100576.53;4962368;28;19926;-91
2023/04/30 08:41:16;;;;;;;;;;;;;;;27.95;19.12;100573.22;4960728;28;19922;-92
2023/04/30 08:43:43;;;;;;;;;;;;;;;29.64;17.27;100564.09;4972489;28;19917;-90
2023/04/30 08:46:12;;;;;;;;;;;;;;;30.15;16.88;100564.72;4973559;28;19957;-91
2023/04/30 08:48:37;;;;;;;;;;;;;;;30.83;16.50;100569.97;4963303;28;19929;-92
2023/04/30 08:51:04;;;;;;;;;;;;;;;31.15;16.03;100565.66;4963494;28;19925;-91
2023/04/30 08:53:31;;;;;;;;;;;;;;;31.71;15.55;100566.72;4994874;28;19926;-91
2023/04/30 08:56:08;;;;;;;;;;;;;;;32.58;14.79;100565.88;4985008;28;20009;-90
2023/04/30 08:58:36;;;;;;;;;;;;;;;33.09;14.25;100568.69;4976697;28;19918;-92
2023/04/30 09:01:06;;;;;;;;;;;;;;;32.96;14.16;100557.25;4986189;28;20001;-92
2023/04/30 09:03:31;;;;;;;;;;;;;;;32.64;14.56;100554.63;4983038;28;19968;-91
2023/04/30 09:05:58;;;;;;;;;;;;;;;32.39;14.70;100560.41;4990690;28;19929;-90
2023/04/30 09:08:43;;;;;;;;;;;;;;;31.84;14.80;100560.34;4983590;28;19926;-91
2023/04/30 09:11:25;;;;;;;;;;;;;;;32.82;14.19;100556.47;4963839;28;19928;-90
2023/04/30 09:13:53;;;;;;;;;;;;;;;34.42;13.15;100551.31;4950178;28;20061;-91
2023/04/30 09:16:19;;;;;;;;;;;;;;;34.52;13.33;100553.78;4981320;28;20405;-93
2023/04/30 09:18:46;;;;;;;;;;;;;;;36.21;11.69;100541.81;4964341;28;19926;-92
2023/04/30 09:21:13;;;;;;;;;;;;;;;35.00;12.72;100544.47;4966081;28;20310;-92
2023/04/30 09:23:57;;;;;;;;;;;;;;;35.19;12.66;100540.56;4983565;28;20012;-94
2023/04/30 09:26:27;;;;;;;;;;;;;;;34.88;12.53;100544.31;4969455;28;19940;-91
2023/04/30 09:28:58;;;;;;;;;;;;;;;34.55;12.89;100544.75;4986285;28;19929;-91
2023/04/30 09:31:25;;;;;;;;;;;;;;;35.58;12.38;100536.72;4981944;28;20330;-92
2023/04/30 09:33:53;;;;;;;;;;;;;;;35.69;11.73;100526.84;4981669;28;19926;-95
2023/04/30 09:36:23;;;;;;;;;;;;;;;35.84;12.37;100533.88;4984530;28;19961;-92
2023/04/30 09:38:52;;;;;;;;;;;;;;;36.78;11.74;100520.88;4967478;28;19935;-89
2023/04/30 09:41:29;;;;;;;;;;;;;;;37.93;10.93;100532.31;4998609;28;19922;-93
2023/04/30 09:43:56;;;;;;;;;;;;;;;37.75;10.96;100520.47;4992191;28;19933;-90
2023/04/30 09:46:23;;;;;;;;;;;;;;;36.81;11.21;100529.44;4958200;28;19975;-88
2023/04/30 09:48:55;;;;;;;;;;;;;;;35.91;12.05;100522.97;4976842;28;20394;-88
2023/04/30 09:51:20;;;;;;;;;;;;;;;35.08;12.57;100529.69;4990790;28;20024;-88
2023/04/30 09:53:46;;;;;;;;;;;;;;;34.93;13.03;100530.19;4976692;28;20034;-92
2023/04/30 09:56:13;;;;;;;;;;;;;;;35.53;12.51;100522.94;4982043;28;19925;-90
2023/04/30 09:58:38;;;;;;;;;;;;;;;35.46;12.16;100523.44;4969211;28;19918;-90
2023/04/30 10:01:06;;;;;;;;;;;;;;;35.63;12.53;100521.78;4980729;28;20005;-90
2023/04/30 10:03:31;;;;;;;;;;;;;;;36.10;12.32;100516.19;4992906;28;19932;-89
2023/04/30 10:05:58;;;;;;;;;;;;;;;36.58;11.72;100512.16;5006451;28;20005;-91
2023/04/30 10:08:41;;;;;;;;;;;;;;;37.14;11.63;100512.69;4977052;28;19967;-89
2023/04/30 10:11:07;;;;;;;;;;;;;;;37.64;10.74;100508.06;4987724;28;20374;-92
2023/04/30 10:13:53;;;;;;;;;;;;;;;37.82;11.08;100511.50;4993861;28;19926;-89
2023/04/30 10:16:39;;;;;;;;;;;;;;;37.40;11.00;100506.00;4983130;28;19996;-92
2023/04/30 10:19:29;;;;;;;;;;;;;;;38.52;10.63;100516.22;4990847;28;19976;-95
2023/04/30 10:21:54;;;;;;;;;;;;;;;37.57;10.86;100517.03;4993378;28;19989;-92
2023/04/30 10:24:21;;;;;;;;;;;;;;;38.18;10.61;100519.13;4960082;28;19957;-89
2023/04/30 10:26:46;;;;;;;;;;;;;;;37.83;10.72;100521.53;4981451;28;19918;-92
2023/04/30 10:29:13;;;;;;;;;;;;;;;36.41;11.71;100524.25;4985491;28;19934;-93
2023/04/30 10:31:45;;;;;;;;;;;;;;;37.79;10.94;100513.00;4958635;28;20385;-94
2023/04/30 10:34:16;;;;;;;;;;;;;;;36.51;10.99;100520.25;4994135;28;20358;-90
2023/04/30 10:36:45;;;;;;;;;;;;;;;36.14;11.69;100523.56;4998731;28;19925;-94
2023/04/30 10:39:16;;;;;;;;;;;;;;;35.75;11.86;100507.91;4977808;28;20351;-92
2023/04/30 10:41:45;;;;;;;;;;;;;;;37.36;11.28;100508.66;4989480;28;19952;-91
2023/04/30 10:44:11;;;;;;;;;;;;;;;36.47;11.27;100520.09;4974535;28;20409;-92
2023/04/30 10:46:36;;;;;;;;;;;;;;;34.22;12.49;100511.66;4956360;28;19926;-91
2023/04/30 10:49:02;;;;;;;;;;;;;;;34.50;12.45;100503.03;4963933;28;19933;-90
2023/04/30 10:51:46;;;;;;;;;;;;;;;34.33;12.65;100505.81;4981563;28;19945;-91
2023/04/30 10:54:13;;;;;;;;;;;;;;;34.13;13.07;100510.81;4971806;28;19925;-88
2023/04/30 10:56:38;;;;;;;;;;;;;;;33.70;13.19;100510.63;4960498;28;19922;-92
2023/04/30 10:59:42;;;;;;;;;;;;;;;31.58;14.60;100507.19;4987539;28;20318;-91
2023/04/30 11:02:14;;;;;;;;;;;;;;;30.27;15.50;100506.91;4971765;28;19980;-93
2023/04/30 11:04:58;;;;;;;;;;;;;;;29.68;16.48;100506.16;4964573;28;20059;-91
2023/04/30 11:07:27;;;;;;;;;;;;;;;30.11;15.94;100505.41;4980671;28;20283;-89
2023/04/30 11:09:53;;;;;;;;;;;;;;;30.35;15.80;100497.94;4964955;28;19933;-90
2023/04/30 11:12:20;;;;;;;;;;;;;;;29.78;16.26;100499.69;4988526;28;20406;-89
2023/04/30 11:15:05;;;;;;;;;;;;;;;29.78;16.59;100502.47;4974200;28;20390;-92
2023/04/30 11:17:31;;;;;;;;;;;;;;;28.10;17.89;100505.25;4967273;28;19927;-91
2023/04/30 11:20:23;;;;;;;;;;;;;;;28.06;17.32;100504.13;4965112;28;19937;-92
2023/04/30 11:23:10;;;;;;;;;;;;;;;28.52;17.30;100510.31;4997539;28;20340;-93
2023/04/30 11:25:39;;;;;;;;;;;;;;;28.05;17.52;100499.69;4991205;28;19926;-93
2023/04/30 11:28:05;;;;;;;;;;;;;;;28.58;17.43;100500.06;4991088;28;19976;-94
2023/04/30 11:30:31;;;;;;;;;;;;;;;28.22;17.47;100508.50;5010165;28;19933;-92
2023/04/30 11:32:58;;;;;;;;;;;;;;;28.94;16.97;100500.66;4971170;28;19926;-92
2023/04/30 11:35:28;;;;;;;;;;;;;;;28.71;16.91;100496.66;4985923;28;19936;-93
2023/04/30 11:38:03;;;;;;;;;;;;;;;28.70;16.77;100496.94;4983196;28;19910;-90
2023/04/30 11:40:29;;;;;;;;;;;;;;;28.79;16.65;100493.28;4987427;28;19928;-92
2023/04/30 11:42:55;;;;;;;;;;;;;;;28.37;17.40;100499.31;4986124;28;19929;-92
2023/04/30 11:45:22;;;;;;;;;;;;;;;27.79;17.65;100500.59;4974183;28;19945;-91
2023/04/30 11:47:53;;;;;;;;;;;;;;;27.07;18.29;100499.78;5002858;28;19928;-90
2023/04/30 11:50:28;;;;;;;;;;;;;;;27.50;18.50;100494.81;4973157;28;19961;-92
2023/04/30 11:52:55;;;;;;;;;;;;;;;27.83;17.83;100480.69;4989406;28;20045;-92
2023/04/30 11:55:22;;;;;;;;;;;;;;;27.38;18.39;100488.78;4990365;28;19989;-90
2023/04/30 11:57:48;;;;;;;;;;;;;;;26.15;19.37;100482.97;4994185;28;20028;-92
2023/04/30 12:00:20;;;;;;;;;;;;;;;26.61;19.46;100494.19;4978493;28;19918;-92
2023/04/30 12:02:47;;;;;;;;;;;;;;;26.60;19.26;100495.31;4984865;28;19922;-90
2023/04/30 12:05:30;;;;;;;;;;;;;;;27.34;18.18;100488.47;4963394;28;19984;-95
2023/04/30 12:07:58;;;;;;;;;;;;;;;27.04;18.58;100488.47;5008919;28;19930;-93
2023/04/30 12:10:24;;;;;;;;;;;;;;;27.12;18.46;100479.66;4965628;28;19937;-93
2023/04/30 12:12:53;;;;;;;;;;;;;;;26.69;19.54;100482.63;4983887;28;19937;-89
2023/04/30 12:15:25;;;;;;;;;;;;;;;27.06;19.01;100481.56;4987319;28;20012;-95
2023/04/30 12:17:51;;;;;;;;;;;;;;;27.06;18.57;100491.78;4986682;28;19945;-91
2023/04/30 12:20:18;;;;;;;;;;;;;;;26.97;18.78;100477.69;4974706;28;19922;-92
2023/04/30 12:22:44;;;;;;;;;;;;;;;26.85;18.86;100491.75;4986819;28;19976;-92
2023/04/30 12:25:17;;;;;;;;;;;;;;;26.41;19.62;100475.66;4996876;28;19953;-93
2023/04/30 12:27:52;;;;;;;;;;;;;;;26.39;19.91;100482.53;4974884;28;19918;-87
2023/04/30 12:30:21;;;;;;;;;;;;;;;26.22;19.63;100485.47;4986306;28;19926;-92
2023/04/30 12:32:50;;;;;;;;;;;;;;;25.97;19.97;100477.94;4970802;28;19922;-93
2023/04/30 12:35:34;;;;;;;;;;;;;;;25.97;20.20;100480.69;4989576;28;19913;-95
2023/04/30 12:38:03;;;;;;;;;;;;;;;25.61;20.22;100489.53;4974005;28;19929;-93
2023/04/30 12:40:30;;;;;;;;;;;;;;;26.05;19.89;100481.00;4971730;28;19928;-91
2023/04/30 12:43:05;;;;;;;;;;;;;;;25.83;20.62;100492.16;4986609;28;19922;-91
2023/04/30 12:45:43;;;;;;;;;;;;;;;24.76;25.77;100494.84;4991237;28;19933;-94
2023/04/30 12:48:12;;;;;;;;;;;;;;;23.58;29.17;100501.53;4992919;28;19922;-93
2023/04/30 12:50:51;;;;;;;;;;;;;;;23.27;30.31;100513.06;4972130;28;19925;-89
2023/04/30 12:53:16;;;;;;;;;;;;;;;23.09;31.46;100497.72;4985467;28;19917;-86
2023/04/30 12:55:43;;;;;;;;;;;;;;;23.29;31.78;100489.81;4983425;28;20032;-91